Terminal Aerodrome Forecast
Issued by NWS

Home | Current Version | Previous Version | Text Only | Print | Product List | Glossary On
Versions: 1 2 3 4 5 6 7 8 9 10 11 12 13 14 15 16 17 18 19
000
FTUS45 KPIH 061126
TAFSUN
TAF
KSUN 061126Z 0612/0712 32007KT P6SM VCSH SCT020 BKN050
     FM061800 12006KT 4SM -SN SCT010 BKN020 OVC030
     FM070300 31008KT P6SM VCSH SCT020 OVC040
      AMD LTD TO CLD VIS AND WIND TIL 061400=

USA.gov is the U.S. government's official web portal to all federal, state and local government web resources and services.